createdAt,value
2022-09-15T00:01:06.951Z,1.40
2022-09-15T00:03:53.436Z,1.33
2022-09-15T00:06:39.680Z,1.45
2022-09-15T00:09:26.173Z,1.23
2022-09-15T00:12:12.243Z,1.30
2022-09-15T00:14:58.133Z,1.40
2022-09-15T00:17:49.853Z,1.30
2022-09-15T00:20:41.681Z,1.40
2022-09-15T00:23:27.945Z,1.63
2022-09-15T00:26:21.202Z,1.30
2022-09-15T00:29:07.193Z,1.75
2022-09-15T00:31:53.290Z,1.40
2022-09-15T00:34:39.249Z,1.20
2022-09-15T00:37:25.786Z,1.50
2022-09-15T00:40:12.411Z,1.40
2022-09-15T00:42:58.974Z,1.55
2022-09-15T00:45:45.238Z,1.88
2022-09-15T00:48:31.746Z,1.30
2022-09-15T00:51:23.037Z,1.20
2022-09-15T00:54:16.368Z,1.60
2022-09-15T00:57:08.527Z,1.30
2022-09-15T00:59:56.854Z,1.23
2022-09-15T01:02:44.764Z,1.13
2022-09-15T01:05:39.412Z,1.20
2022-09-15T01:08:31.819Z,1.67
2022-09-15T01:11:18.044Z,1.10
2022-09-15T01:14:04.229Z,1.27
2022-09-15T01:17:10.737Z,1.23
2022-09-15T01:20:20.074Z,1.10
2022-09-15T01:23:48.742Z,0.80
2022-09-15T01:29:34.443Z,1.10
2022-09-15T01:32:48.553Z,1.20
2022-09-15T01:35:57.913Z,1.88
2022-09-15T01:38:50.123Z,1.23
2022-09-15T01:41:47.387Z,1.30
2022-09-15T01:44:47.474Z,1.27
2022-09-15T01:47:35.770Z,1.38
2022-09-15T01:50:27.583Z,1.08
2022-09-15T01:53:17.937Z,1.30
2022-09-15T01:56:11.673Z,1.80
2022-09-15T01:58:58.537Z,1.40
2022-09-15T02:01:52.895Z,1.27
2022-09-15T02:04:46.963Z,1.48
2022-09-15T02:07:47.790Z,1.45
2022-09-15T02:10:45.299Z,1.48
2022-09-15T02:13:48.757Z,1.35
2022-09-15T02:16:36.693Z,1.40
2022-09-15T02:20:03.405Z,1.27
2022-09-15T02:23:00.765Z,1.30
2022-09-15T02:25:51.676Z,1.65
2022-09-15T02:28:40.277Z,1.15
2022-09-15T02:31:27.750Z,1.23
2022-09-15T02:34:19.594Z,1.20
2022-09-15T02:37:06.518Z,1.30
2022-09-15T02:42:54.352Z,1.38
2022-09-15T02:45:40.933Z,1.40
2022-09-15T02:48:27.086Z,1.55
2022-09-15T02:51:13.300Z,1.30
2022-09-15T02:53:59.310Z,1.30
2022-09-15T02:56:45.669Z,1.20
2022-09-15T02:59:51.500Z,1.30
2022-09-15T03:02:38.098Z,1.50
2022-09-15T03:05:27.261Z,1.50
2022-09-15T03:08:13.917Z,1.38
2022-09-15T03:10:59.876Z,1.20
2022-09-15T03:13:46.861Z,1.30
2022-09-15T03:16:34.589Z,1.30
2022-09-15T03:19:20.478Z,1.40
2022-09-15T03:22:07.136Z,1.40
2022-09-15T03:24:53.396Z,1.40
2022-09-15T03:27:39.623Z,1.33
2022-09-15T03:30:26.362Z,1.20
2022-09-15T03:33:12.627Z,1.10
2022-09-15T03:35:58.862Z,1.40
2022-09-15T03:38:45.314Z,1.00
2022-09-15T03:41:31.187Z,1.13
2022-09-15T03:44:17.053Z,1.30
2022-09-15T03:47:03.766Z,1.00
2022-09-15T03:49:49.921Z,1.83
2022-09-15T03:52:35.923Z,1.23
2022-09-15T03:55:21.785Z,1.27
2022-09-15T03:58:07.889Z,1.30
2022-09-15T04:00:54.425Z,1.40
2022-09-15T04:03:45.393Z,0.95
2022-09-15T04:06:34.106Z,1.10
2022-09-15T04:09:21.463Z,1.10
2022-09-15T04:12:07.876Z,1.10
2022-09-15T04:14:54.112Z,1.10
2022-09-15T04:17:40.317Z,1.05
2022-09-15T04:20:26.419Z,1.23
2022-09-15T04:23:12.302Z,0.90
2022-09-15T04:26:03.712Z,1.20
2022-09-15T04:28:50.426Z,1.05
2022-09-15T04:31:36.394Z,1.45
2022-09-15T04:34:22.241Z,1.10
2022-09-15T04:37:08.312Z,1.00
2022-09-15T04:39:54.329Z,1.02
2022-09-15T04:42:40.256Z,1.00
2022-09-15T04:45:27.230Z,1.00
2022-09-15T04:51:04.616Z,0.93
2022-09-15T04:53:51.952Z,0.88
2022-09-15T04:56:39.145Z,1.00
2022-09-15T05:02:11.509Z,0.70
2022-09-15T05:04:57.670Z,0.87
2022-09-15T05:07:43.721Z,0.80
2022-09-15T05:10:29.743Z,1.00
2022-09-15T05:13:15.913Z,0.85
2022-09-15T05:16:12.059Z,0.80
2022-09-15T05:19:01.107Z,0.70
2022-09-15T05:21:47.182Z,0.73
2022-09-15T05:24:34.581Z,0.77
2022-09-15T05:27:20.533Z,0.85
2022-09-15T05:30:35.279Z,0.90
2022-09-15T05:33:13.958Z,0.80
2022-09-15T05:36:00.732Z,0.80
2022-09-15T05:38:47.173Z,0.50
2022-09-15T05:41:32.990Z,0.87
2022-09-15T05:44:21.356Z,0.85
2022-09-15T05:47:07.662Z,0.68
2022-09-15T05:49:53.817Z,0.80
2022-09-15T05:52:40.173Z,1.00
2022-09-15T05:55:26.462Z,0.77
2022-09-15T05:58:12.994Z,0.60
2022-09-15T06:01:05.890Z,0.70
2022-09-15T06:03:52.810Z,0.70
2022-09-15T06:06:38.949Z,0.95
2022-09-15T06:09:24.691Z,1.00
2022-09-15T06:12:10.685Z,1.10
2022-09-15T06:14:56.724Z,0.65
2022-09-15T06:17:42.793Z,1.00
2022-09-15T06:20:28.925Z,0.80
2022-09-15T06:23:14.940Z,0.90
2022-09-15T06:26:12.379Z,0.73
2022-09-15T06:29:03.782Z,0.60
2022-09-15T06:31:49.907Z,1.02
2022-09-15T06:34:35.919Z,0.80
2022-09-15T06:37:21.991Z,0.80
2022-09-15T06:40:08.592Z,0.67
2022-09-15T06:42:57.631Z,1.17
2022-09-15T06:45:44.273Z,0.60
2022-09-15T06:48:32.163Z,0.80
2022-09-15T06:51:20.610Z,0.80
2022-09-15T06:54:06.888Z,1.00
2022-09-15T06:56:52.746Z,0.80
2022-09-15T06:59:38.694Z,1.00
2022-09-15T07:02:24.916Z,0.73
2022-09-15T07:05:11.110Z,0.80
2022-09-15T07:07:56.926Z,0.80
2022-09-15T07:10:44.904Z,1.35
2022-09-15T07:13:30.976Z,1.00
2022-09-15T07:16:19.006Z,1.00
2022-09-15T07:19:06.112Z,0.90
2022-09-15T07:21:52.865Z,1.23
2022-09-15T07:27:29.614Z,0.82
2022-09-15T07:30:15.764Z,0.77
2022-09-15T07:33:01.941Z,1.10
2022-09-15T07:35:48.029Z,0.90
2022-09-15T07:38:34.826Z,1.00
2022-09-15T07:41:23.688Z,0.82
2022-09-15T07:44:11.893Z,0.90
2022-09-15T07:46:57.806Z,0.90
2022-09-15T07:49:43.727Z,0.70
2022-09-15T07:52:30.870Z,0.77
2022-09-15T07:55:18.352Z,0.85
2022-09-15T07:58:04.557Z,0.93
2022-09-15T08:00:50.890Z,0.73
2022-09-15T08:03:41.488Z,0.88
2022-09-15T08:06:27.984Z,0.80
2022-09-15T08:09:17.334Z,0.90
2022-09-15T08:12:04.305Z,0.80
2022-09-15T08:14:50.237Z,1.00
2022-09-15T08:17:36.198Z,1.03
2022-09-15T08:20:22.184Z,0.88
2022-09-15T08:23:09.609Z,1.00
2022-09-15T08:25:55.710Z,1.10
2022-09-15T08:28:42.484Z,0.80
2022-09-15T08:31:28.839Z,1.10
2022-09-15T08:34:16.452Z,1.00
2022-09-15T08:37:02.630Z,0.90
2022-09-15T08:39:49.120Z,1.00
2022-09-15T08:42:35.271Z,0.70
2022-09-15T08:45:29.276Z,0.93
2022-09-15T08:48:17.402Z,0.90
2022-09-15T08:51:24.554Z,0.90
2022-09-15T08:54:20.355Z,1.10
2022-09-15T08:57:10.479Z,1.02
2022-09-15T08:59:59.100Z,0.80
2022-09-15T09:02:56.633Z,0.98
2022-09-15T09:05:50.053Z,0.93
2022-09-15T09:09:03.160Z,0.90
2022-09-15T09:12:17.220Z,1.20
2022-09-15T09:15:32.998Z,1.10
2022-09-15T09:18:19.386Z,1.08
2022-09-15T09:21:13.257Z,0.93
2022-09-15T09:24:26.800Z,0.80
2022-09-15T09:27:20.146Z,1.10
2022-09-15T09:30:12.503Z,0.82
2022-09-15T09:33:30.353Z,1.02
2022-09-15T09:36:16.674Z,1.30
2022-09-15T09:39:03.825Z,1.00
2022-09-15T09:41:50.690Z,0.93
2022-09-15T09:44:37.394Z,1.20
2022-09-15T09:47:29.820Z,0.82
2022-09-15T09:50:38.774Z,1.02
2022-09-15T09:53:33.109Z,0.80
2022-09-15T09:56:27.970Z,0.90
2022-09-15T09:59:39.938Z,0.80
2022-09-15T10:02:27.395Z,0.80
2022-09-15T10:05:21.229Z,0.82
2022-09-15T10:08:14.502Z,0.88
2022-09-15T10:11:06.631Z,0.70
2022-09-15T10:13:55.465Z,0.70
2022-09-15T10:16:41.842Z,0.65
2022-09-15T10:19:30.713Z,0.80
2022-09-15T10:22:33.216Z,0.70
2022-09-15T10:25:22.435Z,0.90
2022-09-15T10:28:16.092Z,1.10
2022-09-15T10:31:11.515Z,0.82
2022-09-15T10:33:57.360Z,1.00
2022-09-15T10:36:43.866Z,1.00
2022-09-15T10:39:48.430Z,0.80
2022-09-15T10:42:55.092Z,1.17
2022-09-15T10:45:50.974Z,1.02
2022-09-15T10:48:58.477Z,0.80
2022-09-15T10:52:04.033Z,0.90
2022-09-15T10:54:59.323Z,0.55
2022-09-15T10:58:05.083Z,0.60
2022-09-15T11:01:23.252Z,0.90
2022-09-15T11:04:21.559Z,0.90
2022-09-15T11:07:26.672Z,0.60
2022-09-15T11:10:20.978Z,0.90
2022-09-15T11:13:21.603Z,0.82
2022-09-15T11:16:08.437Z,0.80
2022-09-15T11:19:09.971Z,0.95
2022-09-15T11:22:08.575Z,0.80
2022-09-15T11:25:01.540Z,1.10
2022-09-15T11:28:15.412Z,1.13
2022-09-15T11:31:12.033Z,0.93
2022-09-15T11:34:07.397Z,1.10
2022-09-15T11:37:24.995Z,1.00
2022-09-15T11:40:23.813Z,1.63
2022-09-15T11:43:15.695Z,1.30
2022-09-15T11:46:08.203Z,2.85
2022-09-15T11:49:12.135Z,1.10
2022-09-15T11:52:22.518Z,1.77
2022-09-15T11:55:31.082Z,1.50
2022-09-15T11:58:23.701Z,0.90
2022-09-15T12:01:21.072Z,0.90
2022-09-15T12:04:22.305Z,0.98
2022-09-15T12:07:23.793Z,1.00
2022-09-15T12:10:17.817Z,0.85
2022-09-15T12:13:05.394Z,0.77
2022-09-15T12:15:52.222Z,1.05
2022-09-15T12:19:11.927Z,0.95
2022-09-15T12:22:15.218Z,0.85
2022-09-15T12:25:09.232Z,0.82
2022-09-15T12:28:23.327Z,0.90
2022-09-15T12:31:25.452Z,0.90
2022-09-15T12:34:38.453Z,0.95
2022-09-15T12:37:26.273Z,0.93
2022-09-15T12:40:30.753Z,1.00
2022-09-15T12:43:22.902Z,0.80
2022-09-15T12:46:18.218Z,0.88
2022-09-15T12:49:04.867Z,0.70
2022-09-15T12:51:51.370Z,0.82
2022-09-15T12:54:41.994Z,0.70
2022-09-15T12:57:33.481Z,0.90
2022-09-15T13:00:32.781Z,0.93
2022-09-15T13:03:28.372Z,0.90
2022-09-15T13:06:21.765Z,0.77
2022-09-15T13:09:19.013Z,0.90
2022-09-15T13:12:07.616Z,0.60
2022-09-15T13:14:56.167Z,1.50
2022-09-15T13:17:47.139Z,0.70
2022-09-15T13:20:36.061Z,0.82
2022-09-15T13:23:25.567Z,0.80
2022-09-15T13:26:17.558Z,0.82
2022-09-15T13:29:06.333Z,0.80
2022-09-15T13:32:19.643Z,0.80
2022-09-15T13:35:17.395Z,0.50
2022-09-15T13:38:52.349Z,1.08
2022-09-15T13:41:40.145Z,0.60
2022-09-15T13:44:31.853Z,0.80
2022-09-15T13:47:44.823Z,0.80
2022-09-15T13:50:36.522Z,0.93
2022-09-15T13:53:29.294Z,0.70
2022-09-15T13:56:23.772Z,0.80
2022-09-15T13:59:18.861Z,0.80
2022-09-15T14:02:09.018Z,1.08
2022-09-15T14:04:55.197Z,0.90
2022-09-15T14:07:41.688Z,0.95
2022-09-15T14:10:31.728Z,1.00
2022-09-15T14:13:21.059Z,0.77
2022-09-15T14:16:19.208Z,0.80
2022-09-15T14:19:34.762Z,0.80
2022-09-15T14:22:20.601Z,0.80
2022-09-15T14:25:16.908Z,0.87
2022-09-15T14:28:03.265Z,1.20
2022-09-15T14:30:49.872Z,1.25
2022-09-15T14:33:39.293Z,1.10
2022-09-15T14:36:29.659Z,1.00
2022-09-15T14:39:21.881Z,0.98
2022-09-15T14:42:22.367Z,0.90
2022-09-15T14:48:28.316Z,1.58
2022-09-15T14:51:23.535Z,1.58
2022-09-15T14:54:35.291Z,1.65
2022-09-15T14:57:26.552Z,1.60
2022-09-15T15:00:23.345Z,1.35
2022-09-15T15:03:23.040Z,1.00
2022-09-15T15:06:29.316Z,0.90
2022-09-15T15:09:37.872Z,1.10
2022-09-15T15:12:41.749Z,1.02
2022-09-15T15:15:28.855Z,1.30
2022-09-15T15:18:31.644Z,1.10
2022-09-15T15:21:43.089Z,1.02
2022-09-15T15:24:29.739Z,1.15
2022-09-15T15:27:52.062Z,1.10
2022-09-15T15:30:47.453Z,1.25
2022-09-15T15:33:33.638Z,0.98
2022-09-15T15:36:24.763Z,0.90
2022-09-15T15:39:24.481Z,1.20
2022-09-15T15:42:16.032Z,0.80
2022-09-15T15:45:09.836Z,0.73
2022-09-15T15:47:56.842Z,0.65
2022-09-15T15:50:43.497Z,0.80
2022-09-15T15:53:29.480Z,0.88
2022-09-15T15:56:23.276Z,0.70
2022-09-15T15:59:13.193Z,0.82
2022-09-15T16:01:59.215Z,0.80
2022-09-15T16:04:45.097Z,0.70
2022-09-15T16:07:33.393Z,1.00
2022-09-15T16:10:22.608Z,0.80
2022-09-15T16:13:12.976Z,0.85
2022-09-15T16:16:01.031Z,0.90
2022-09-15T16:18:48.092Z,1.30
2022-09-15T16:21:39.514Z,1.10
2022-09-15T16:24:26.070Z,1.45
2022-09-15T16:27:15.955Z,1.10
2022-09-15T16:30:03.671Z,1.20
2022-09-15T16:32:49.691Z,1.20
2022-09-15T16:35:39.750Z,1.20
2022-09-15T16:38:28.162Z,1.25
2022-09-15T16:41:20.365Z,1.20
2022-09-15T16:44:19.432Z,1.30
2022-09-15T16:47:06.837Z,1.70
2022-09-15T16:49:53.105Z,1.60
2022-09-15T16:52:39.123Z,1.85
2022-09-15T16:55:38.846Z,1.63
2022-09-15T16:58:25.113Z,2.90
2022-09-15T17:01:18.066Z,2.10
2022-09-15T17:04:16.584Z,1.98
2022-09-15T17:07:02.500Z,2.10
2022-09-15T17:09:49.867Z,2.33
2022-09-15T17:12:37.680Z,2.45
2022-09-15T17:15:28.460Z,2.17
2022-09-15T17:18:15.569Z,2.40
2022-09-15T17:21:02.192Z,2.47
2022-09-15T17:23:49.824Z,2.70
2022-09-15T17:26:35.866Z,2.65
2022-09-15T17:29:21.723Z,2.93
2022-09-15T17:32:08.966Z,3.08
2022-09-15T17:34:54.873Z,2.90
2022-09-15T17:37:40.810Z,3.50
2022-09-15T17:40:26.786Z,3.33
2022-09-15T17:43:18.667Z,3.10
2022-09-15T17:46:05.115Z,3.53
2022-09-15T17:48:51.277Z,3.05
2022-09-15T17:51:37.193Z,3.63
2022-09-15T17:54:23.602Z,3.40
2022-09-15T17:57:09.576Z,3.08
2022-09-15T17:59:55.606Z,4.00
2022-09-15T18:02:43.569Z,3.60
2022-09-15T18:05:35.744Z,3.33
2022-09-15T18:08:22.508Z,3.97
2022-09-15T18:11:12.843Z,3.33
2022-09-15T18:13:58.980Z,3.60
2022-09-15T18:16:46.018Z,3.77
2022-09-15T18:19:32.042Z,3.35
2022-09-15T18:22:24.886Z,3.10
2022-09-15T18:25:17.674Z,3.35
2022-09-15T18:28:04.467Z,3.45
2022-09-15T18:30:51.476Z,3.60
2022-09-15T18:33:37.497Z,3.08
2022-09-15T18:36:23.610Z,4.33
2022-09-15T18:39:11.935Z,3.30
2022-09-15T18:41:58.001Z,3.53
2022-09-15T18:44:44.041Z,3.75
2022-09-15T18:47:29.934Z,3.92
2022-09-15T18:50:16.627Z,3.50
2022-09-15T18:53:03.347Z,3.33
2022-09-15T18:55:49.402Z,3.38
2022-09-15T18:58:35.658Z,3.30
2022-09-15T19:01:22.592Z,3.42
2022-09-15T19:04:08.540Z,3.08
2022-09-15T19:06:54.611Z,3.00
2022-09-15T19:09:40.577Z,3.05
2022-09-15T19:12:26.566Z,3.30
2022-09-15T19:15:13.918Z,3.30
2022-09-15T19:17:59.954Z,3.55
2022-09-15T19:20:45.864Z,3.33
2022-09-15T19:23:31.880Z,3.10
2022-09-15T19:26:17.978Z,3.27
2022-09-15T19:29:05.047Z,3.30
2022-09-15T19:31:51.425Z,3.28
2022-09-15T19:34:38.805Z,3.10
2022-09-15T19:37:24.645Z,3.08
2022-09-15T19:40:13.505Z,3.45
2022-09-15T19:42:59.630Z,3.13
2022-09-15T19:45:46.262Z,3.40
2022-09-15T19:48:35.229Z,2.97
2022-09-15T19:51:25.644Z,2.95
2022-09-15T19:54:11.867Z,3.40
2022-09-15T19:56:58.149Z,3.33
2022-09-15T19:59:44.830Z,3.70
2022-09-15T20:02:31.179Z,3.40
2022-09-15T20:05:17.089Z,3.43
2022-09-15T20:08:03.742Z,3.30
2022-09-15T20:10:49.726Z,3.70
2022-09-15T20:13:41.050Z,3.75
2022-09-15T20:16:27.969Z,4.00
2022-09-15T20:19:14.273Z,3.58
2022-09-15T20:22:00.280Z,4.15
2022-09-15T20:24:46.350Z,4.03
2022-09-15T20:27:32.387Z,4.10
2022-09-15T20:30:23.086Z,4.63
2022-09-15T20:33:09.277Z,4.65
2022-09-15T20:35:55.467Z,4.68
2022-09-15T20:38:43.268Z,4.68
2022-09-15T20:41:31.837Z,4.72
2022-09-15T20:44:17.960Z,4.20
2022-09-15T20:47:03.925Z,3.87
2022-09-15T20:49:49.939Z,4.35
2022-09-15T20:52:38.386Z,4.20
2022-09-15T20:55:25.575Z,3.97
2022-09-15T20:58:11.757Z,4.00
2022-09-15T21:01:19.293Z,4.15
2022-09-15T21:06:52.163Z,4.80
2022-09-15T21:09:38.112Z,4.00
2022-09-15T21:12:24.037Z,4.40
2022-09-15T21:15:10.391Z,4.40
2022-09-15T21:17:56.526Z,4.30
2022-09-15T21:20:43.150Z,3.90
2022-09-15T21:23:34.969Z,4.63
2022-09-15T21:26:24.497Z,4.40
2022-09-15T21:29:10.312Z,5.05
2022-09-15T21:31:56.381Z,4.75
2022-09-15T21:34:43.878Z,5.03
2022-09-15T21:37:30.122Z,4.80
2022-09-15T21:40:17.105Z,4.57
2022-09-15T21:43:03.321Z,4.43
2022-09-15T21:45:58.090Z,4.90
2022-09-15T21:48:46.716Z,4.78
2022-09-15T21:51:33.022Z,4.85
2022-09-15T21:54:19.145Z,5.47
2022-09-15T21:57:05.070Z,4.97
2022-09-15T21:59:50.958Z,5.47
2022-09-15T22:02:37.169Z,5.72
2022-09-15T22:05:23.433Z,5.18
2022-09-15T22:08:10.493Z,5.45
2022-09-15T22:11:00.205Z,5.20
2022-09-15T22:13:46.588Z,5.47
2022-09-15T22:16:34.023Z,4.85
2022-09-15T22:19:20.138Z,5.13
2022-09-15T22:22:06.505Z,4.80
2022-09-15T22:24:52.827Z,4.32
2022-09-15T22:27:39.163Z,4.75
2022-09-15T22:30:25.131Z,5.13
2022-09-15T22:33:11.792Z,5.47
2022-09-15T22:35:58.674Z,5.30
2022-09-15T22:38:45.101Z,5.40
2022-09-15T22:41:33.652Z,5.35
2022-09-15T22:44:20.843Z,5.45
2022-09-15T22:47:07.706Z,5.15
2022-09-15T22:49:53.603Z,5.28
2022-09-15T22:52:39.694Z,5.80
2022-09-15T22:55:25.617Z,5.07
2022-09-15T22:58:11.480Z,5.37
2022-09-15T23:01:09.660Z,4.85
2022-09-15T23:03:58.081Z,5.13
2022-09-15T23:06:43.986Z,5.20
2022-09-15T23:09:29.902Z,5.63
2022-09-15T23:12:16.695Z,5.30
2022-09-15T23:15:04.574Z,4.80
2022-09-15T23:17:51.327Z,5.10
2022-09-15T23:20:39.728Z,5.22
2022-09-15T23:23:26.638Z,4.82
2022-09-15T23:26:14.087Z,5.25
2022-09-15T23:29:00.259Z,5.07
2022-09-15T23:31:46.660Z,4.82
2022-09-15T23:34:33.354Z,4.72
2022-09-15T23:37:19.504Z,5.38
2022-09-15T23:40:05.969Z,4.80
2022-09-15T23:42:51.891Z,4.47
2022-09-15T23:45:38.430Z,4.63
2022-09-15T23:48:24.557Z,5.03
2022-09-15T23:51:11.317Z,5.07
2022-09-15T23:53:58.053Z,5.03
2022-09-15T23:56:44.127Z,4.75
2022-09-15T23:59:30.368Z,4.78
